sensor_id;sensor_type;location;lat;lon;timestamp;P1;durP1;ratioP1;P2;durP2;ratioP2
56181;SDS011;51963;46.052;14.544;2023-04-08T00:00:44;13.70;;;8.02;;
56181;SDS011;51963;46.052;14.544;2023-04-08T00:03:10;15.07;;;7.03;;
56181;SDS011;51963;46.052;14.544;2023-04-08T00:05:36;15.18;;;7.05;;
56181;SDS011;51963;46.052;14.544;2023-04-08T00:08:01;16.23;;;7.18;;
56181;SDS011;51963;46.052;14.544;2023-04-08T00:10:27;12.30;;;6.55;;
56181;SDS011;51963;46.052;14.544;2023-04-08T00:12:53;12.48;;;7.22;;
56181;SDS011;51963;46.052;14.544;2023-04-08T00:15:19;13.30;;;7.10;;
56181;SDS011;51963;46.052;14.544;2023-04-08T00:17:45;12.90;;;6.35;;
56181;SDS011;51963;46.052;14.544;2023-04-08T00:20:11;12.75;;;6.40;;
56181;SDS011;51963;46.052;14.544;2023-04-08T00:22:36;12.52;;;6.72;;
56181;SDS011;51963;46.052;14.544;2023-04-08T00:25:02;13.70;;;6.97;;
56181;SDS011;51963;46.052;14.544;2023-04-08T00:29:57;12.95;;;6.88;;
56181;SDS011;51963;46.052;14.544;2023-04-08T00:32:24;13.73;;;6.85;;
56181;SDS011;51963;46.052;14.544;2023-04-08T00:34:51;9.48;;;6.25;;
56181;SDS011;51963;46.052;14.544;2023-04-08T00:37:17;11.02;;;6.18;;
56181;SDS011;51963;46.052;14.544;2023-04-08T00:39:42;12.20;;;6.70;;
56181;SDS011;51963;46.052;14.544;2023-04-08T00:42:08;11.95;;;6.97;;
56181;SDS011;51963;46.052;14.544;2023-04-08T00:44:34;14.00;;;6.95;;
56181;SDS011;51963;46.052;14.544;2023-04-08T00:46:59;14.10;;;6.93;;
56181;SDS011;51963;46.052;14.544;2023-04-08T00:49:25;11.95;;;6.90;;
56181;SDS011;51963;46.052;14.544;2023-04-08T00:51:52;13.13;;;6.70;;
56181;SDS011;51963;46.052;14.544;2023-04-08T00:54:18;13.13;;;6.95;;
56181;SDS011;51963;46.052;14.544;2023-04-08T00:56:44;12.25;;;6.63;;
56181;SDS011;51963;46.052;14.544;2023-04-08T00:59:10;10.93;;;6.53;;
56181;SDS011;51963;46.052;14.544;2023-04-08T01:04:12;12.07;;;6.97;;
56181;SDS011;51963;46.052;14.544;2023-04-08T01:06:52;14.35;;;8.10;;
56181;SDS011;51963;46.052;14.544;2023-04-08T01:09:23;17.40;;;9.35;;
56181;SDS011;51963;46.052;14.544;2023-04-08T01:11:52;12.50;;;7.28;;
56181;SDS011;51963;46.052;14.544;2023-04-08T01:14:22;12.40;;;6.80;;
56181;SDS011;51963;46.052;14.544;2023-04-08T01:16:55;12.63;;;7.53;;
56181;SDS011;51963;46.052;14.544;2023-04-08T01:19:29;14.13;;;7.22;;
56181;SDS011;51963;46.052;14.544;2023-04-08T01:22:04;13.15;;;7.25;;
56181;SDS011;51963;46.052;14.544;2023-04-08T01:24:50;12.75;;;7.10;;
56181;SDS011;51963;46.052;14.544;2023-04-08T01:27:33;11.50;;;7.00;;
56181;SDS011;51963;46.052;14.544;2023-04-08T01:30:02;13.57;;;6.87;;
56181;SDS011;51963;46.052;14.544;2023-04-08T01:32:29;15.00;;;7.10;;
56181;SDS011;51963;46.052;14.544;2023-04-08T01:34:57;17.55;;;7.18;;
56181;SDS011;51963;46.052;14.544;2023-04-08T01:37:27;12.20;;;6.72;;
56181;SDS011;51963;46.052;14.544;2023-04-08T01:39:54;12.60;;;7.20;;
56181;SDS011;51963;46.052;14.544;2023-04-08T01:42:22;12.45;;;7.05;;
56181;SDS011;51963;46.052;14.544;2023-04-08T01:44:51;12.15;;;6.68;;
56181;SDS011;51963;46.052;14.544;2023-04-08T01:47:20;12.73;;;6.82;;
56181;SDS011;51963;46.052;14.544;2023-04-08T01:49:48;15.15;;;7.22;;
56181;SDS011;51963;46.052;14.544;2023-04-08T01:52:16;14.15;;;7.63;;
56181;SDS011;51963;46.052;14.544;2023-04-08T01:54:44;12.85;;;7.00;;
56181;SDS011;51963;46.052;14.544;2023-04-08T01:57:10;14.23;;;6.97;;
56181;SDS011;51963;46.052;14.544;2023-04-08T01:59:39;12.85;;;6.80;;
56181;SDS011;51963;46.052;14.544;2023-04-08T02:02:07;14.20;;;7.32;;
56181;SDS011;51963;46.052;14.544;2023-04-08T02:04:34;11.95;;;7.32;;
56181;SDS011;51963;46.052;14.544;2023-04-08T02:07:01;13.68;;;7.50;;
56181;SDS011;51963;46.052;14.544;2023-04-08T02:09:27;12.50;;;8.02;;
56181;SDS011;51963;46.052;14.544;2023-04-08T02:11:55;16.20;;;7.53;;
56181;SDS011;51963;46.052;14.544;2023-04-08T02:14:22;13.23;;;7.20;;
56181;SDS011;51963;46.052;14.544;2023-04-08T02:16:49;13.68;;;7.65;;
56181;SDS011;51963;46.052;14.544;2023-04-08T02:19:28;12.18;;;7.15;;
56181;SDS011;51963;46.052;14.544;2023-04-08T02:21:58;11.60;;;7.22;;
56181;SDS011;51963;46.052;14.544;2023-04-08T02:24:36;15.00;;;7.68;;
56181;SDS011;51963;46.052;14.544;2023-04-08T02:27:03;13.10;;;7.45;;
56181;SDS011;51963;46.052;14.544;2023-04-08T02:29:30;13.07;;;7.32;;
56181;SDS011;51963;46.052;14.544;2023-04-08T02:31:57;16.17;;;7.45;;
56181;SDS011;51963;46.052;14.544;2023-04-08T02:34:28;12.27;;;7.32;;
56181;SDS011;51963;46.052;14.544;2023-04-08T02:36:55;12.68;;;7.32;;
56181;SDS011;51963;46.052;14.544;2023-04-08T02:39:20;12.65;;;7.10;;
56181;SDS011;51963;46.052;14.544;2023-04-08T02:41:48;14.07;;;8.45;;
56181;SDS011;51963;46.052;14.544;2023-04-08T02:44:14;13.77;;;6.93;;
56181;SDS011;51963;46.052;14.544;2023-04-08T02:46:39;12.50;;;6.82;;
56181;SDS011;51963;46.052;14.544;2023-04-08T02:49:05;15.57;;;8.07;;
56181;SDS011;51963;46.052;14.544;2023-04-08T02:51:31;10.75;;;6.93;;
56181;SDS011;51963;46.052;14.544;2023-04-08T02:53:57;12.35;;;7.15;;
56181;SDS011;51963;46.052;14.544;2023-04-08T02:56:23;13.48;;;7.50;;
56181;SDS011;51963;46.052;14.544;2023-04-08T02:58:49;10.82;;;6.70;;
56181;SDS011;51963;46.052;14.544;2023-04-08T03:01:16;12.45;;;6.88;;
56181;SDS011;51963;46.052;14.544;2023-04-08T03:03:41;11.88;;;6.32;;
56181;SDS011;51963;46.052;14.544;2023-04-08T03:06:07;11.65;;;6.75;;
56181;SDS011;51963;46.052;14.544;2023-04-08T03:08:33;11.45;;;6.70;;
56181;SDS011;51963;46.052;14.544;2023-04-08T03:10:59;13.48;;;6.95;;
56181;SDS011;51963;46.052;14.544;2023-04-08T03:13:24;14.60;;;7.55;;
56181;SDS011;51963;46.052;14.544;2023-04-08T03:15:50;10.77;;;7.00;;
56181;SDS011;51963;46.052;14.544;2023-04-08T03:18:16;12.88;;;7.72;;
56181;SDS011;51963;46.052;14.544;2023-04-08T03:20:42;12.68;;;7.15;;
56181;SDS011;51963;46.052;14.544;2023-04-08T03:23:07;14.85;;;7.32;;
56181;SDS011;51963;46.052;14.544;2023-04-08T03:25:33;12.70;;;6.72;;
56181;SDS011;51963;46.052;14.544;2023-04-08T03:27:59;11.93;;;6.95;;
56181;SDS011;51963;46.052;14.544;2023-04-08T03:30:24;11.40;;;6.53;;
56181;SDS011;51963;46.052;14.544;2023-04-08T03:32:50;12.48;;;7.13;;
56181;SDS011;51963;46.052;14.544;2023-04-08T03:35:16;13.57;;;7.55;;
56181;SDS011;51963;46.052;14.544;2023-04-08T03:37:41;13.45;;;7.78;;
56181;SDS011;51963;46.052;14.544;2023-04-08T03:40:07;14.15;;;7.35;;
56181;SDS011;51963;46.052;14.544;2023-04-08T03:42:33;12.00;;;7.50;;
56181;SDS011;51963;46.052;14.544;2023-04-08T03:44:59;13.55;;;7.35;;
56181;SDS011;51963;46.052;14.544;2023-04-08T03:47:25;13.05;;;7.75;;
56181;SDS011;51963;46.052;14.544;2023-04-08T03:49:52;14.85;;;7.80;;
56181;SDS011;51963;46.052;14.544;2023-04-08T03:52:19;13.05;;;7.28;;
56181;SDS011;51963;46.052;14.544;2023-04-08T03:54:44;14.30;;;7.72;;
56181;SDS011;51963;46.052;14.544;2023-04-08T03:57:10;14.73;;;8.10;;
56181;SDS011;51963;46.052;14.544;2023-04-08T03:59:36;11.35;;;7.20;;
56181;SDS011;51963;46.052;14.544;2023-04-08T04:02:03;14.55;;;7.70;;
56181;SDS011;51963;46.052;14.544;2023-04-08T04:04:29;16.45;;;8.07;;
56181;SDS011;51963;46.052;14.544;2023-04-08T04:06:55;14.93;;;8.25;;
56181;SDS011;51963;46.052;14.544;2023-04-08T04:09:21;13.68;;;8.05;;
56181;SDS011;51963;46.052;14.544;2023-04-08T04:11:46;15.70;;;7.68;;
56181;SDS011;51963;46.052;14.544;2023-04-08T04:14:12;14.30;;;7.68;;
56181;SDS011;51963;46.052;14.544;2023-04-08T04:16:38;14.68;;;7.75;;
56181;SDS011;51963;46.052;14.544;2023-04-08T04:19:03;14.68;;;8.65;;
56181;SDS011;51963;46.052;14.544;2023-04-08T04:21:29;15.45;;;7.75;;
56181;SDS011;51963;46.052;14.544;2023-04-08T04:23:55;13.02;;;7.32;;
56181;SDS011;51963;46.052;14.544;2023-04-08T04:26:21;13.65;;;7.82;;
56181;SDS011;51963;46.052;14.544;2023-04-08T04:28:47;15.32;;;8.48;;
56181;SDS011;51963;46.052;14.544;2023-04-08T04:31:22;12.95;;;7.60;;
56181;SDS011;51963;46.052;14.544;2023-04-08T04:33:54;15.52;;;7.65;;
56181;SDS011;51963;46.052;14.544;2023-04-08T04:36:20;11.05;;;7.13;;
56181;SDS011;51963;46.052;14.544;2023-04-08T04:38:46;11.93;;;7.50;;
56181;SDS011;51963;46.052;14.544;2023-04-08T04:41:12;12.90;;;7.82;;
56181;SDS011;51963;46.052;14.544;2023-04-08T04:43:37;13.90;;;7.88;;
56181;SDS011;51963;46.052;14.544;2023-04-08T04:46:03;17.42;;;8.48;;
56181;SDS011;51963;46.052;14.544;2023-04-08T04:48:32;13.10;;;8.25;;
56181;SDS011;51963;46.052;14.544;2023-04-08T04:50:58;15.10;;;8.18;;
56181;SDS011;51963;46.052;14.544;2023-04-08T04:53:28;13.98;;;8.30;;
56181;SDS011;51963;46.052;14.544;2023-04-08T04:55:55;15.35;;;8.48;;
56181;SDS011;51963;46.052;14.544;2023-04-08T04:58:20;13.80;;;8.27;;
56181;SDS011;51963;46.052;14.544;2023-04-08T05:00:46;12.48;;;7.80;;
56181;SDS011;51963;46.052;14.544;2023-04-08T05:03:12;15.25;;;7.82;;
56181;SDS011;51963;46.052;14.544;2023-04-08T05:05:38;12.60;;;7.38;;
56181;SDS011;51963;46.052;14.544;2023-04-08T05:08:03;13.23;;;7.97;;
56181;SDS011;51963;46.052;14.544;2023-04-08T05:10:29;13.82;;;7.70;;
56181;SDS011;51963;46.052;14.544;2023-04-08T05:12:55;12.55;;;7.32;;
56181;SDS011;51963;46.052;14.544;2023-04-08T05:15:21;13.77;;;7.80;;
56181;SDS011;51963;46.052;14.544;2023-04-08T05:17:46;13.20;;;7.95;;
56181;SDS011;51963;46.052;14.544;2023-04-08T05:20:12;12.15;;;7.25;;
56181;SDS011;51963;46.052;14.544;2023-04-08T05:22:38;13.07;;;7.88;;
56181;SDS011;51963;46.052;14.544;2023-04-08T05:25:04;16.05;;;8.43;;
56181;SDS011;51963;46.052;14.544;2023-04-08T05:27:30;14.55;;;8.32;;
56181;SDS011;51963;46.052;14.544;2023-04-08T05:29:56;15.15;;;8.32;;
56181;SDS011;51963;46.052;14.544;2023-04-08T05:32:22;13.48;;;7.78;;
56181;SDS011;51963;46.052;14.544;2023-04-08T05:34:48;18.88;;;8.13;;
56181;SDS011;51963;46.052;14.544;2023-04-08T05:37:13;14.13;;;7.90;;
56181;SDS011;51963;46.052;14.544;2023-04-08T05:39:39;16.70;;;8.85;;
56181;SDS011;51963;46.052;14.544;2023-04-08T05:42:05;15.13;;;8.30;;
56181;SDS011;51963;46.052;14.544;2023-04-08T05:44:30;12.95;;;7.68;;
56181;SDS011;51963;46.052;14.544;2023-04-08T05:46:56;15.90;;;10.07;;
56181;SDS011;51963;46.052;14.544;2023-04-08T05:49:22;14.45;;;8.05;;
56181;SDS011;51963;46.052;14.544;2023-04-08T05:51:48;12.63;;;8.13;;
56181;SDS011;51963;46.052;14.544;2023-04-08T05:54:14;15.15;;;8.38;;
56181;SDS011;51963;46.052;14.544;2023-04-08T05:56:39;14.70;;;8.23;;
56181;SDS011;51963;46.052;14.544;2023-04-08T05:59:06;13.48;;;8.30;;
56181;SDS011;51963;46.052;14.544;2023-04-08T06:01:31;15.82;;;8.45;;
56181;SDS011;51963;46.052;14.544;2023-04-08T06:03:57;23.83;;;11.70;;
56181;SDS011;51963;46.052;14.544;2023-04-08T06:06:24;15.20;;;9.40;;
56181;SDS011;51963;46.052;14.544;2023-04-08T06:08:50;15.50;;;8.35;;
56181;SDS011;51963;46.052;14.544;2023-04-08T06:11:16;16.60;;;9.23;;
56181;SDS011;51963;46.052;14.544;2023-04-08T06:13:41;16.85;;;8.65;;
56181;SDS011;51963;46.052;14.544;2023-04-08T06:16:11;17.45;;;8.93;;
56181;SDS011;51963;46.052;14.544;2023-04-08T06:18:38;18.52;;;10.18;;
56181;SDS011;51963;46.052;14.544;2023-04-08T06:21:04;17.00;;;8.90;;
56181;SDS011;51963;46.052;14.544;2023-04-08T06:23:30;16.48;;;10.20;;
56181;SDS011;51963;46.052;14.544;2023-04-08T06:26:04;19.13;;;9.48;;
56181;SDS011;51963;46.052;14.544;2023-04-08T06:28:31;18.67;;;9.02;;
56181;SDS011;51963;46.052;14.544;2023-04-08T06:30:57;16.63;;;9.38;;
56181;SDS011;51963;46.052;14.544;2023-04-08T06:33:23;18.17;;;10.60;;
56181;SDS011;51963;46.052;14.544;2023-04-08T06:36:00;21.27;;;9.70;;
56181;SDS011;51963;46.052;14.544;2023-04-08T06:38:29;17.65;;;10.20;;
56181;SDS011;51963;46.052;14.544;2023-04-08T06:41:00;17.40;;;9.48;;
56181;SDS011;51963;46.052;14.544;2023-04-08T06:43:27;15.48;;;9.48;;
56181;SDS011;51963;46.052;14.544;2023-04-08T06:45:54;19.63;;;10.43;;
56181;SDS011;51963;46.052;14.544;2023-04-08T06:48:20;19.52;;;10.40;;
56181;SDS011;51963;46.052;14.544;2023-04-08T06:50:48;20.08;;;10.70;;
56181;SDS011;51963;46.052;14.544;2023-04-08T06:53:13;21.55;;;12.02;;
56181;SDS011;51963;46.052;14.544;2023-04-08T06:55:39;18.42;;;11.07;;
56181;SDS011;51963;46.052;14.544;2023-04-08T06:58:05;19.52;;;10.57;;
56181;SDS011;51963;46.052;14.544;2023-04-08T07:00:31;20.60;;;11.63;;
56181;SDS011;51963;46.052;14.544;2023-04-08T07:02:58;20.08;;;11.48;;
56181;SDS011;51963;46.052;14.544;2023-04-08T07:05:23;21.20;;;10.43;;
56181;SDS011;51963;46.052;14.544;2023-04-08T07:07:54;18.83;;;10.75;;
56181;SDS011;51963;46.052;14.544;2023-04-08T07:10:20;18.10;;;10.45;;
56181;SDS011;51963;46.052;14.544;2023-04-08T07:12:49;16.52;;;10.23;;
56181;SDS011;51963;46.052;14.544;2023-04-08T07:15:16;20.92;;;11.60;;
56181;SDS011;51963;46.052;14.544;2023-04-08T07:17:42;17.48;;;10.80;;
56181;SDS011;51963;46.052;14.544;2023-04-08T07:20:08;18.60;;;10.63;;
56181;SDS011;51963;46.052;14.544;2023-04-08T07:22:34;24.13;;;10.95;;
56181;SDS011;51963;46.052;14.544;2023-04-08T07:25:00;22.60;;;10.43;;
56181;SDS011;51963;46.052;14.544;2023-04-08T07:27:27;21.52;;;11.25;;
56181;SDS011;51963;46.052;14.544;2023-04-08T07:29:53;16.65;;;9.65;;
56181;SDS011;51963;46.052;14.544;2023-04-08T07:32:19;18.90;;;11.10;;
56181;SDS011;51963;46.052;14.544;2023-04-08T07:34:45;23.67;;;11.10;;
56181;SDS011;51963;46.052;14.544;2023-04-08T07:37:10;23.27;;;11.40;;
56181;SDS011;51963;46.052;14.544;2023-04-08T07:39:36;18.77;;;11.27;;
56181;SDS011;51963;46.052;14.544;2023-04-08T07:42:02;19.92;;;11.00;;
56181;SDS011;51963;46.052;14.544;2023-04-08T07:44:27;18.92;;;10.75;;
56181;SDS011;51963;46.052;14.544;2023-04-08T07:46:53;21.85;;;11.32;;
56181;SDS011;51963;46.052;14.544;2023-04-08T07:49:18;25.02;;;12.68;;
56181;SDS011;51963;46.052;14.544;2023-04-08T07:51:44;22.50;;;11.82;;
56181;SDS011;51963;46.052;14.544;2023-04-08T07:54:10;22.08;;;11.68;;
56181;SDS011;51963;46.052;14.544;2023-04-08T07:56:36;18.13;;;11.60;;
56181;SDS011;51963;46.052;14.544;2023-04-08T07:59:05;20.00;;;11.55;;
56181;SDS011;51963;46.052;14.544;2023-04-08T08:01:31;21.13;;;11.23;;
56181;SDS011;51963;46.052;14.544;2023-04-08T08:03:59;23.15;;;11.95;;
56181;SDS011;51963;46.052;14.544;2023-04-08T08:06:26;22.45;;;12.13;;
56181;SDS011;51963;46.052;14.544;2023-04-08T08:08:57;21.25;;;12.73;;
56181;SDS011;51963;46.052;14.544;2023-04-08T08:11:22;25.23;;;13.20;;
56181;SDS011;51963;46.052;14.544;2023-04-08T08:13:48;25.17;;;12.98;;
56181;SDS011;51963;46.052;14.544;2023-04-08T08:16:17;25.30;;;12.38;;
56181;SDS011;51963;46.052;14.544;2023-04-08T08:18:43;27.63;;;13.38;;
56181;SDS011;51963;46.052;14.544;2023-04-08T08:21:09;22.60;;;12.55;;
56181;SDS011;51963;46.052;14.544;2023-04-08T08:23:35;21.33;;;12.93;;
56181;SDS011;51963;46.052;14.544;2023-04-08T08:26:03;22.17;;;12.70;;
56181;SDS011;51963;46.052;14.544;2023-04-08T08:28:31;25.33;;;13.30;;
56181;SDS011;51963;46.052;14.544;2023-04-08T08:31:00;24.95;;;12.95;;
56181;SDS011;51963;46.052;14.544;2023-04-08T08:33:30;20.77;;;13.13;;
56181;SDS011;51963;46.052;14.544;2023-04-08T08:36:01;22.17;;;12.82;;
56181;SDS011;51963;46.052;14.544;2023-04-08T08:38:29;27.17;;;13.00;;
56181;SDS011;51963;46.052;14.544;2023-04-08T08:40:56;24.15;;;13.25;;
56181;SDS011;51963;46.052;14.544;2023-04-08T08:43:25;25.58;;;12.77;;
56181;SDS011;51963;46.052;14.544;2023-04-08T08:45:53;23.17;;;12.52;;
56181;SDS011;51963;46.052;14.544;2023-04-08T08:48:19;23.85;;;12.88;;
56181;SDS011;51963;46.052;14.544;2023-04-08T08:50:45;21.38;;;12.00;;
56181;SDS011;51963;46.052;14.544;2023-04-08T08:53:11;19.27;;;11.55;;
56181;SDS011;51963;46.052;14.544;2023-04-08T08:55:37;18.33;;;10.85;;
56181;SDS011;51963;46.052;14.544;2023-04-08T08:58:04;20.05;;;10.38;;
56181;SDS011;51963;46.052;14.544;2023-04-08T09:00:35;15.45;;;9.43;;
56181;SDS011;51963;46.052;14.544;2023-04-08T09:05:53;16.50;;;9.77;;
56181;SDS011;51963;46.052;14.544;2023-04-08T09:08:31;16.83;;;9.35;;
56181;SDS011;51963;46.052;14.544;2023-04-08T09:11:10;18.92;;;10.98;;
56181;SDS011;51963;46.052;14.544;2023-04-08T09:13:43;20.88;;;11.13;;
56181;SDS011;51963;46.052;14.544;2023-04-08T09:16:13;14.90;;;10.05;;
56181;SDS011;51963;46.052;14.544;2023-04-08T09:18:48;15.85;;;9.07;;
56181;SDS011;51963;46.052;14.544;2023-04-08T09:21:15;11.88;;;7.60;;
56181;SDS011;51963;46.052;14.544;2023-04-08T09:23:49;13.98;;;7.90;;
56181;SDS011;51963;46.052;14.544;2023-04-08T09:26:16;10.57;;;6.80;;
56181;SDS011;51963;46.052;14.544;2023-04-08T09:28:56;10.25;;;6.78;;
56181;SDS011;51963;46.052;14.544;2023-04-08T09:31:26;8.82;;;5.90;;
56181;SDS011;51963;46.052;14.544;2023-04-08T09:33:57;12.98;;;6.70;;
56181;SDS011;51963;46.052;14.544;2023-04-08T09:36:24;13.13;;;6.78;;
56181;SDS011;51963;46.052;14.544;2023-04-08T09:38:51;12.25;;;6.47;;
56181;SDS011;51963;46.052;14.544;2023-04-08T09:41:19;10.40;;;6.22;;
56181;SDS011;51963;46.052;14.544;2023-04-08T09:43:55;12.07;;;6.78;;
56181;SDS011;51963;46.052;14.544;2023-04-08T09:48:57;10.30;;;6.10;;
56181;SDS011;51963;46.052;14.544;2023-04-08T09:52:20;12.02;;;6.40;;
56181;SDS011;51963;46.052;14.544;2023-04-08T09:57:15;10.88;;;6.70;;
56181;SDS011;51963;46.052;14.544;2023-04-08T09:59:51;10.85;;;6.85;;
56181;SDS011;51963;46.052;14.544;2023-04-08T10:02:24;9.82;;;6.68;;
56181;SDS011;51963;46.052;14.544;2023-04-08T10:04:58;13.18;;;7.55;;
56181;SDS011;51963;46.052;14.544;2023-04-08T10:07:28;13.48;;;8.35;;
56181;SDS011;51963;46.052;14.544;2023-04-08T10:09:54;16.65;;;7.90;;
56181;SDS011;51963;46.052;14.544;2023-04-08T10:12:21;12.37;;;7.77;;
56181;SDS011;51963;46.052;14.544;2023-04-08T10:17:55;15.95;;;9.05;;
56181;SDS011;51963;46.052;14.544;2023-04-08T10:20:43;15.38;;;8.35;;
56181;SDS011;51963;46.052;14.544;2023-04-08T10:23:11;13.15;;;8.25;;
56181;SDS011;51963;46.052;14.544;2023-04-08T10:25:41;13.95;;;7.80;;
56181;SDS011;51963;46.052;14.544;2023-04-08T10:30:43;11.32;;;7.13;;
56181;SDS011;51963;46.052;14.544;2023-04-08T10:33:17;15.07;;;7.70;;
56181;SDS011;51963;46.052;14.544;2023-04-08T10:35:46;18.77;;;7.63;;
56181;SDS011;51963;46.052;14.544;2023-04-08T10:38:13;11.32;;;7.07;;
56181;SDS011;51963;46.052;14.544;2023-04-08T10:40:40;12.30;;;7.47;;
56181;SDS011;51963;46.052;14.544;2023-04-08T10:43:08;11.30;;;7.63;;
56181;SDS011;51963;46.052;14.544;2023-04-08T10:45:35;13.52;;;7.57;;
56181;SDS011;51963;46.052;14.544;2023-04-08T10:50:43;12.23;;;6.93;;
56181;SDS011;51963;46.052;14.544;2023-04-08T10:53:35;13.90;;;8.05;;
56181;SDS011;51963;46.052;14.544;2023-04-08T11:01:19;13.20;;;8.27;;
56181;SDS011;51963;46.052;14.544;2023-04-08T11:03:45;13.27;;;8.68;;
56181;SDS011;51963;46.052;14.544;2023-04-08T11:06:11;14.63;;;8.50;;
56181;SDS011;51963;46.052;14.544;2023-04-08T11:08:37;12.25;;;8.18;;
56181;SDS011;51963;46.052;14.544;2023-04-08T11:11:06;12.35;;;7.85;;
56181;SDS011;51963;46.052;14.544;2023-04-08T11:13:39;13.95;;;7.55;;
56181;SDS011;51963;46.052;14.544;2023-04-08T11:16:10;15.88;;;7.75;;
56181;SDS011;51963;46.052;14.544;2023-04-08T11:18:37;13.05;;;7.57;;
56181;SDS011;51963;46.052;14.544;2023-04-08T11:21:07;15.13;;;8.23;;
56181;SDS011;51963;46.052;14.544;2023-04-08T11:23:37;12.60;;;7.57;;
56181;SDS011;51963;46.052;14.544;2023-04-08T11:26:03;11.43;;;6.88;;
56181;SDS011;51963;46.052;14.544;2023-04-08T11:28:29;11.98;;;6.97;;
56181;SDS011;51963;46.052;14.544;2023-04-08T11:30:55;9.90;;;7.18;;
56181;SDS011;51963;46.052;14.544;2023-04-08T11:33:25;11.65;;;6.82;;
56181;SDS011;51963;46.052;14.544;2023-04-08T11:35:53;12.70;;;7.78;;
56181;SDS011;51963;46.052;14.544;2023-04-08T11:38:22;11.23;;;7.50;;
56181;SDS011;51963;46.052;14.544;2023-04-08T11:40:56;10.63;;;7.50;;
56181;SDS011;51963;46.052;14.544;2023-04-08T11:43:23;13.80;;;7.40;;
56181;SDS011;51963;46.052;14.544;2023-04-08T11:45:50;11.70;;;6.90;;
56181;SDS011;51963;46.052;14.544;2023-04-08T11:48:16;10.20;;;7.43;;
56181;SDS011;51963;46.052;14.544;2023-04-08T11:50:43;11.63;;;7.93;;
56181;SDS011;51963;46.052;14.544;2023-04-08T11:53:24;10.35;;;7.07;;
56181;SDS011;51963;46.052;14.544;2023-04-08T11:55:50;9.45;;;6.95;;
56181;SDS011;51963;46.052;14.544;2023-04-08T11:58:16;9.40;;;7.15;;
56181;SDS011;51963;46.052;14.544;2023-04-08T12:00:42;11.40;;;7.22;;
56181;SDS011;51963;46.052;14.544;2023-04-08T12:03:09;10.37;;;7.30;;
56181;SDS011;51963;46.052;14.544;2023-04-08T12:05:37;12.60;;;7.97;;
56181;SDS011;51963;46.052;14.544;2023-04-08T12:08:02;11.75;;;7.63;;
56181;SDS011;51963;46.052;14.544;2023-04-08T12:10:28;13.60;;;7.75;;
56181;SDS011;51963;46.052;14.544;2023-04-08T12:12:56;10.38;;;7.20;;
56181;SDS011;51963;46.052;14.544;2023-04-08T12:15:22;12.05;;;8.38;;
56181;SDS011;51963;46.052;14.544;2023-04-08T12:17:47;12.52;;;7.35;;
56181;SDS011;51963;46.052;14.544;2023-04-08T12:20:13;10.25;;;7.57;;
56181;SDS011;51963;46.052;14.544;2023-04-08T12:22:41;10.93;;;7.00;;
56181;SDS011;51963;46.052;14.544;2023-04-08T12:25:07;13.77;;;7.93;;
56181;SDS011;51963;46.052;14.544;2023-04-08T12:27:33;10.32;;;7.75;;
56181;SDS011;51963;46.052;14.544;2023-04-08T12:29:59;10.82;;;7.88;;
56181;SDS011;51963;46.052;14.544;2023-04-08T12:32:25;10.93;;;7.55;;
56181;SDS011;51963;46.052;14.544;2023-04-08T12:34:51;11.80;;;7.95;;
56181;SDS011;51963;46.052;14.544;2023-04-08T12:37:17;9.55;;;7.57;;
56181;SDS011;51963;46.052;14.544;2023-04-08T12:39:42;11.85;;;7.70;;
56181;SDS011;51963;46.052;14.544;2023-04-08T12:42:08;10.48;;;7.15;;
56181;SDS011;51963;46.052;14.544;2023-04-08T12:44:34;9.68;;;7.05;;
56181;SDS011;51963;46.052;14.544;2023-04-08T12:47:00;8.75;;;6.97;;
56181;SDS011;51963;46.052;14.544;2023-04-08T12:49:25;11.65;;;7.50;;
56181;SDS011;51963;46.052;14.544;2023-04-08T12:51:51;11.07;;;7.40;;
56181;SDS011;51963;46.052;14.544;2023-04-08T12:54:18;11.43;;;7.65;;
56181;SDS011;51963;46.052;14.544;2023-04-08T12:56:44;10.57;;;7.70;;
56181;SDS011;51963;46.052;14.544;2023-04-08T12:59:10;9.80;;;7.22;;
56181;SDS011;51963;46.052;14.544;2023-04-08T13:01:36;9.52;;;7.25;;
56181;SDS011;51963;46.052;14.544;2023-04-08T13:04:02;9.15;;;6.68;;
56181;SDS011;51963;46.052;14.544;2023-04-08T13:06:28;8.55;;;6.07;;
56181;SDS011;51963;46.052;14.544;2023-04-08T13:08:54;8.98;;;6.32;;
56181;SDS011;51963;46.052;14.544;2023-04-08T13:11:19;8.25;;;5.80;;
56181;SDS011;51963;46.052;14.544;2023-04-08T13:13:48;6.63;;;5.13;;
56181;SDS011;51963;46.052;14.544;2023-04-08T13:16:14;11.35;;;4.47;;
56181;SDS011;51963;46.052;14.544;2023-04-08T13:18:40;4.38;;;3.67;;
56181;SDS011;51963;46.052;14.544;2023-04-08T13:21:08;5.28;;;2.80;;
56181;SDS011;51963;46.052;14.544;2023-04-08T13:23:34;4.50;;;2.90;;
56181;SDS011;51963;46.052;14.544;2023-04-08T13:26:00;5.70;;;2.55;;
56181;SDS011;51963;46.052;14.544;2023-04-08T13:28:27;4.43;;;3.33;;
56181;SDS011;51963;46.052;14.544;2023-04-08T13:30:53;5.63;;;3.67;;
56181;SDS011;51963;46.052;14.544;2023-04-08T13:33:20;6.40;;;3.83;;
56181;SDS011;51963;46.052;14.544;2023-04-08T13:35:46;5.70;;;4.13;;
56181;SDS011;51963;46.052;14.544;2023-04-08T13:38:12;5.97;;;4.45;;
56181;SDS011;51963;46.052;14.544;2023-04-08T13:40:38;6.50;;;4.63;;
56181;SDS011;51963;46.052;14.544;2023-04-08T13:43:04;8.45;;;4.75;;
56181;SDS011;51963;46.052;14.544;2023-04-08T13:45:29;7.20;;;4.70;;
56181;SDS011;51963;46.052;14.544;2023-04-08T13:47:55;6.78;;;4.70;;
56181;SDS011;51963;46.052;14.544;2023-04-08T13:50:21;6.22;;;4.43;;
56181;SDS011;51963;46.052;14.544;2023-04-08T13:52:46;6.90;;;4.65;;
56181;SDS011;51963;46.052;14.544;2023-04-08T13:55:15;6.07;;;4.88;;
56181;SDS011;51963;46.052;14.544;2023-04-08T13:57:40;8.52;;;5.18;;
56181;SDS011;51963;46.052;14.544;2023-04-08T14:00:06;8.13;;;5.07;;
56181;SDS011;51963;46.052;14.544;2023-04-08T14:02:35;8.63;;;5.63;;
56181;SDS011;51963;46.052;14.544;2023-04-08T14:05:01;8.60;;;6.20;;
56181;SDS011;51963;46.052;14.544;2023-04-08T14:07:27;10.15;;;6.00;;
56181;SDS011;51963;46.052;14.544;2023-04-08T14:09:52;10.57;;;6.15;;
56181;SDS011;51963;46.052;14.544;2023-04-08T14:12:18;8.27;;;5.82;;
56181;SDS011;51963;46.052;14.544;2023-04-08T14:14:44;9.15;;;6.30;;
56181;SDS011;51963;46.052;14.544;2023-04-08T14:17:10;10.20;;;6.63;;
56181;SDS011;51963;46.052;14.544;2023-04-08T14:19:35;10.23;;;6.13;;
56181;SDS011;51963;46.052;14.544;2023-04-08T14:22:01;8.45;;;6.30;;
56181;SDS011;51963;46.052;14.544;2023-04-08T14:24:27;9.90;;;7.25;;
56181;SDS011;51963;46.052;14.544;2023-04-08T14:26:53;8.68;;;6.30;;
56181;SDS011;51963;46.052;14.544;2023-04-08T14:29:18;9.57;;;7.03;;
56181;SDS011;51963;46.052;14.544;2023-04-08T14:31:44;9.77;;;7.13;;
56181;SDS011;51963;46.052;14.544;2023-04-08T14:34:10;14.50;;;9.30;;
56181;SDS011;51963;46.052;14.544;2023-04-08T14:36:36;10.20;;;7.38;;
56181;SDS011;51963;46.052;14.544;2023-04-08T14:39:01;11.07;;;7.20;;
56181;SDS011;51963;46.052;14.544;2023-04-08T14:41:27;10.95;;;6.90;;
56181;SDS011;51963;46.052;14.544;2023-04-08T14:43:53;9.40;;;6.68;;
56181;SDS011;51963;46.052;14.544;2023-04-08T14:46:19;10.55;;;7.18;;
56181;SDS011;51963;46.052;14.544;2023-04-08T14:48:45;9.73;;;6.72;;